Terminal Aerodrome Forecast
Issued by NWS

Home | Current Version | Previous Version | Text Only | Print | Product List | Glossary On
Versions: 1 2 3 4 5 6 7 8 9 10 11 12 13
000
FTUS42 KTBW 291700
TAFLAL
TAF
KLAL 291740Z 2918/3018 27011KT P6SM VCTS SCT025 BKN035CB
      TEMPO 2918/2921 VRB15G25KT 4SM TSRA BKN025CB
     FM300100 VRB06KT P6SM SCT030 SCT100 BKN250
     FM301300 VRB05KT P6SM FEW020 SCT035=

USA.gov is the U.S. government's official web portal to all federal, state and local government web resources and services.